Time;durP1;ratioP1;P1;durP2;ratioP2;P2;SDS_P1;SDS_P2;PMS_P1;PMS_P2;Temp;Humidity;BMP_temperature;BMP_pressure;BME280_temperature;BME280_humidity;BME280_pressure;Samples;Min_cycle;Max_cycle;Signal;HPM_P1;HPM_P2
2023/07/19 00:01:06;;;;;;;4.95;1.98;;;;;;;16.77;66.96;101253.16;4968593;28;20487;-71
2023/07/19 00:03:33;;;;;;;3.42;1.90;;;;;;;16.73;67.13;101247.13;4967113;28;20126;-70
2023/07/19 00:06:01;;;;;;;4.63;2.10;;;;;;;16.71;67.27;101254.34;4967573;28;20125;-71
2023/07/19 00:08:31;;;;;;;5.00;1.80;;;;;;;16.70;67.53;101259.72;4965724;28;20117;-70
2023/07/19 00:10:59;;;;;;;3.88;1.85;;;;;;;16.67;67.79;101255.41;4966772;28;20038;-69
2023/07/19 00:13:27;;;;;;;3.90;1.92;;;;;;;16.66;68.11;101255.50;4967015;28;20043;-69
2023/07/19 00:15:54;;;;;;;4.88;1.77;;;;;;;16.64;68.21;101252.03;4963292;28;20050;-69
2023/07/19 00:18:21;;;;;;;4.15;1.75;;;;;;;16.64;68.65;101249.38;4968349;28;20078;-69
2023/07/19 00:20:48;;;;;;;4.28;2.22;;;;;;;16.61;68.77;101247.75;4966905;28;20042;-69
2023/07/19 00:23:15;;;;;;;3.50;1.88;;;;;;;16.60;69.03;101265.50;4966321;28;20126;-69
2023/07/19 00:25:45;;;;;;;3.88;2.00;;;;;;;16.60;69.76;101259.31;4967304;28;20038;-69
2023/07/19 00:28:12;;;;;;;4.10;2.00;;;;;;;16.59;70.08;101255.78;4965598;28;20042;-69
2023/07/19 00:30:40;;;;;;;4.28;2.20;;;;;;;16.59;70.10;101247.81;4961069;28;20468;-69
2023/07/19 00:33:08;;;;;;;5.78;2.40;;;;;;;16.61;70.30;101253.91;4966613;28;20043;-69
2023/07/19 00:35:41;;;;;;;6.53;2.40;;;;;;;16.64;70.56;101250.22;4965684;28;20050;-70
2023/07/19 00:38:08;;;;;;;5.10;2.53;;;;;;;16.66;70.80;101244.84;4966005;28;20057;-70
2023/07/19 00:40:35;;;;;;;8.30;2.97;;;;;;;16.66;70.42;101239.53;4997249;28;20035;-70
2023/07/19 00:43:10;;;;;;;4.15;2.80;;;;;;;16.70;71.17;101241.97;4960055;28;20034;-70
2023/07/19 00:45:52;;;;;;;4.65;3.00;;;;;;;16.70;71.75;101233.09;4962327;28;20569;-70
2023/07/19 00:48:21;;;;;;;6.70;3.35;;;;;;;16.71;71.70;101232.16;4963541;28;20074;-71
2023/07/19 00:50:51;;;;;;;5.45;3.30;;;;;;;16.70;71.57;101233.97;4965823;28;20393;-70
2023/07/19 00:53:19;;;;;;;7.40;3.35;;;;;;;16.72;71.50;101236.56;4995895;28;20054;-70
2023/07/19 00:55:49;;;;;;;5.80;3.08;;;;;;;16.73;71.52;101233.84;4966520;28;20683;-70
2023/07/19 00:58:20;;;;;;;4.85;3.08;;;;;;;16.75;71.31;101233.75;4984935;28;20054;-69
2023/07/19 01:00:48;;;;;;;4.78;2.97;;;;;;;16.74;71.22;101229.34;4963573;28;20125;-69
2023/07/19 01:03:16;;;;;;;5.63;3.33;;;;;;;16.72;71.25;101221.47;4967322;28;20511;-70
2023/07/19 01:05:43;;;;;;;8.48;3.55;;;;;;;16.70;71.37;101222.44;4963499;28;20047;-70
2023/07/19 01:08:11;;;;;;;5.97;3.40;;;;;;;16.67;71.35;101226.13;4962595;28;20451;-70
2023/07/19 01:10:38;;;;;;;8.38;3.85;;;;;;;16.65;71.54;101217.34;4962036;28;20046;-70
2023/07/19 01:13:12;;;;;;;5.20;3.50;;;;;;;16.64;71.63;101214.78;4962486;28;20055;-70
2023/07/19 01:15:41;;;;;;;5.82;3.55;;;;;;;16.61;71.53;101219.31;4956431;28;20605;-70
2023/07/19 01:18:08;;;;;;;5.57;3.63;;;;;;;16.59;71.91;101215.00;4965718;28;20071;-70
2023/07/19 01:20:35;;;;;;;5.78;3.67;;;;;;;16.57;72.05;101215.09;4962815;28;20412;-69
2023/07/19 01:23:04;;;;;;;7.07;3.97;;;;;;;16.59;72.53;101207.88;4957156;28;20214;-70
2023/07/19 01:25:31;;;;;;;5.68;3.85;;;;;;;16.61;72.65;101202.50;4956852;28;20057;-70
2023/07/19 01:27:58;;;;;;;8.45;4.18;;;;;;;16.64;72.94;101209.47;4962233;28;20121;-70
2023/07/19 01:30:26;;;;;;;5.38;4.57;;;;;;;16.67;73.15;101206.66;4964013;28;20065;-70
2023/07/19 01:32:53;;;;;;;7.25;4.18;;;;;;;16.68;72.84;101201.25;4966466;28;20550;-70
2023/07/19 01:35:21;;;;;;;10.88;4.57;;;;;;;16.68;72.87;101203.91;4967579;28;20042;-70
2023/07/19 01:37:48;;;;;;;7.85;4.65;;;;;;;16.69;72.87;101202.97;4964347;28;20544;-70
2023/07/19 01:40:15;;;;;;;9.40;4.72;;;;;;;16.67;73.02;101204.00;4965416;28;20042;-70
2023/07/19 01:42:42;;;;;;;8.60;4.68;;;;;;;16.66;73.00;101194.28;4963768;28;20059;-70
2023/07/19 01:45:10;;;;;;;6.63;4.45;;;;;;;16.64;73.26;101197.00;4989407;28;20047;-69
2023/07/19 01:47:37;;;;;;;7.65;4.35;;;;;;;16.61;73.22;101187.38;4998274;28;20113;-68
2023/07/19 01:50:05;;;;;;;10.38;4.50;;;;;;;16.59;73.32;101191.06;4964000;28;20035;-68
2023/07/19 01:52:33;;;;;;;7.05;4.32;;;;;;;16.55;73.27;101190.34;4962351;28;20043;-68
2023/07/19 01:55:00;;;;;;;7.03;4.40;;;;;;;16.51;73.53;101187.94;4964188;28;20047;-68
2023/07/19 01:57:27;;;;;;;4.55;3.30;;;;;;;16.43;73.46;101185.63;4963494;28;20435;-68
2023/07/19 01:59:56;;;;;;;4.93;3.38;;;;;;;16.38;73.11;101193.84;4983024;28;20059;-68
2023/07/19 02:02:23;;;;;;;7.40;3.90;;;;;;;16.35;73.72;101188.66;4966785;28;20050;-68
2023/07/19 02:04:51;;;;;;;4.03;3.15;;;;;;;16.30;73.83;101185.38;4966031;28;20469;-68
2023/07/19 02:07:18;;;;;;;6.93;3.92;;;;;;;16.24;74.29;101178.56;4965863;28;20518;-68
2023/07/19 02:09:45;;;;;;;7.38;3.92;;;;;;;16.21;74.19;101178.72;4970983;28;20297;-68
2023/07/19 02:12:12;;;;;;;8.70;3.70;;;;;;;16.17;74.37;101184.25;4968164;28;20046;-68
2023/07/19 02:14:41;;;;;;;7.78;3.60;;;;;;;16.11;74.33;101180.09;4999992;28;20058;-68
2023/07/19 02:17:08;;;;;;;5.72;3.58;;;;;;;16.08;74.33;101174.91;4964263;28;20421;-68
2023/07/19 02:19:38;;;;;;;7.30;3.90;;;;;;;16.05;74.55;101173.25;4966763;28;20105;-68
2023/07/19 02:22:05;;;;;;;5.35;3.50;;;;;;;16.04;74.50;101174.19;4967671;28;20062;-70
2023/07/19 02:24:34;;;;;;;7.03;3.50;;;;;;;16.03;74.58;101172.47;4969090;28;20089;-70
2023/07/19 02:27:02;;;;;;;5.85;3.35;;;;;;;16.01;75.04;101169.06;4966521;28;20678;-70
2023/07/19 02:29:29;;;;;;;9.43;3.70;;;;;;;15.98;74.93;101171.84;4966840;28;20328;-70
2023/07/19 02:31:56;;;;;;;8.45;3.42;;;;;;;15.94;75.16;101162.28;5000107;28;20074;-70
2023/07/19 02:34:23;;;;;;;6.60;3.60;;;;;;;15.92;75.34;101161.50;4968911;28;20061;-71
2023/07/19 02:36:50;;;;;;;5.80;4.00;;;;;;;15.92;75.36;101164.19;4996900;28;20058;-71
2023/07/19 02:39:20;;;;;;;4.82;3.45;;;;;;;15.89;75.97;101162.50;4967347;28;20046;-71
2023/07/19 02:41:47;;;;;;;6.03;4.00;;;;;;;15.89;76.20;101159.84;4982363;28;20170;-71
2023/07/19 02:44:14;;;;;;;7.28;3.80;;;;;;;15.90;76.13;101161.56;4967942;28;20046;-70
2023/07/19 02:46:41;;;;;;;7.22;4.50;;;;;;;15.93;76.38;101155.22;4958232;28;20678;-70
2023/07/19 02:49:11;;;;;;;7.22;4.32;;;;;;;15.95;76.34;101151.59;4969165;28;20098;-70
2023/07/19 02:51:38;;;;;;;7.22;4.10;;;;;;;15.96;76.31;101150.66;4963471;28;20078;-70
2023/07/19 02:54:05;;;;;;;8.25;4.13;;;;;;;15.97;76.55;101157.66;4966986;28;20047;-70
2023/07/19 02:56:32;;;;;;;7.38;3.92;;;;;;;15.94;76.47;101155.19;4981174;28;20046;-71
2023/07/19 02:58:59;;;;;;;6.38;4.47;;;;;;;15.92;76.54;101157.03;4965492;28;20035;-71
2023/07/19 03:01:27;;;;;;;5.00;3.60;;;;;;;15.93;76.51;101160.56;4982813;28;20064;-72
2023/07/19 03:03:54;;;;;;;5.88;4.30;;;;;;;15.96;76.87;101165.72;4968053;28;20558;-71
2023/07/19 03:06:21;;;;;;;6.93;3.75;;;;;;;15.95;76.93;101162.22;4967787;28;20088;-72
2023/07/19 03:08:49;;;;;;;5.70;4.07;;;;;;;15.95;77.03;101183.50;4967172;28;20097;-71
2023/07/19 03:11:16;;;;;;;5.93;4.10;;;;;;;15.93;76.81;101171.19;4966457;28;20069;-71
2023/07/19 03:13:43;;;;;;;6.25;4.00;;;;;;;15.89;77.26;101170.47;4997048;28;20046;-72
2023/07/19 03:16:10;;;;;;;6.43;4.07;;;;;;;15.88;76.95;101179.38;4966198;28;20455;-72
2023/07/19 03:18:37;;;;;;;6.60;4.40;;;;;;;15.88;77.10;101178.53;4951780;28;20118;-71
2023/07/19 03:21:04;;;;;;;5.53;4.55;;;;;;;15.88;77.85;101179.38;4998097;28;20100;-72
2023/07/19 03:23:32;;;;;;;6.13;4.45;;;;;;;15.92;77.98;101188.09;4967478;28;20202;-71
2023/07/19 03:26:00;;;;;;;10.48;6.10;;;;;;;15.97;79.02;101186.06;4997928;28;20043;-71
2023/07/19 03:28:29;;;;;;;10.60;4.95;;;;;;;16.00;79.22;101180.63;4966654;28;20051;-71
2023/07/19 03:30:57;;;;;;;7.70;4.57;;;;;;;16.05;79.42;101178.59;4964568;28;20566;-71
2023/07/19 03:33:26;;;;;;;10.98;5.10;;;;;;;16.10;79.48;101187.22;4967198;28;20053;-71
2023/07/19 03:35:54;;;;;;;8.45;4.97;;;;;;;16.10;79.13;101187.22;4981286;28;20531;-71
2023/07/19 03:38:21;;;;;;;7.80;4.68;;;;;;;16.10;79.06;101189.00;4965989;28;20054;-70
2023/07/19 03:40:52;;;;;;;7.70;4.72;;;;;;;16.09;78.94;101177.50;4965770;28;20054;-70
2023/07/19 03:43:19;;;;;;;9.00;5.63;;;;;;;16.10;78.87;101184.56;4967161;28;20050;-70
2023/07/19 03:45:46;;;;;;;11.30;5.55;;;;;;;16.17;79.13;101186.91;4982296;28;20043;-70
2023/07/19 03:48:13;;;;;;;9.02;5.28;;;;;;;16.17;79.38;101185.13;4981191;28;20379;-70
2023/07/19 03:50:41;;;;;;;7.53;4.82;;;;;;;16.19;79.07;101185.03;4965889;28;20053;-70
2023/07/19 03:53:09;;;;;;;10.07;5.43;;;;;;;16.20;79.10;101192.09;4996324;28;20054;-70
2023/07/19 03:55:36;;;;;;;11.38;5.97;;;;;;;16.23;79.51;101184.81;4966620;28;20500;-70
2023/07/19 03:58:05;;;;;;;8.77;5.28;;;;;;;16.28;79.32;101192.56;4997450;28;20085;-70
2023/07/19 04:00:33;;;;;;;8.48;5.70;;;;;;;16.33;79.76;101193.19;4952748;28;20074;-70
2023/07/19 04:03:00;;;;;;;8.93;5.78;;;;;;;16.36;79.15;101193.06;4997203;28;20043;-71
2023/07/19 04:05:27;;;;;;;11.32;5.90;;;;;;;16.38;78.58;101190.34;4977912;28;20105;-70
2023/07/19 04:07:54;;;;;;;9.65;5.75;;;;;;;16.38;78.23;101185.03;5000429;28;20039;-69
2023/07/19 04:10:21;;;;;;;9.15;5.75;;;;;;;16.41;77.59;101185.72;4998157;28;20512;-69
2023/07/19 04:12:48;;;;;;;8.95;5.80;;;;;;;16.48;77.77;101196.94;4964926;28;20074;-70
2023/07/19 04:15:16;;;;;;;12.55;5.68;;;;;;;16.54;77.64;101188.63;4997565;28;20043;-70
2023/07/19 04:17:43;;;;;;;11.88;5.50;;;;;;;16.60;77.56;101190.97;4998570;28;20047;-70
2023/07/19 04:20:11;;;;;;;8.77;6.00;;;;;;;16.68;77.18;101190.59;4995786;28;20154;-71
2023/07/19 04:22:39;;;;;;;10.32;5.68;;;;;;;16.72;77.00;101191.28;4981471;28;20089;-70
2023/07/19 04:25:08;;;;;;;12.15;6.35;;;;;;;16.77;77.02;101184.81;4996871;28;20101;-70
2023/07/19 04:27:35;;;;;;;13.43;6.03;;;;;;;16.81;77.11;101176.66;4969690;28;20038;-70
2023/07/19 04:30:03;;;;;;;7.75;5.80;;;;;;;16.85;76.81;101179.09;4963036;28;20368;-70
2023/07/19 04:32:30;;;;;;;10.57;6.15;;;;;;;16.87;76.73;101184.31;4961336;28;20102;-70
2023/07/19 04:34:58;;;;;;;9.75;5.28;;;;;;;16.87;76.21;101184.31;4977429;28;20493;-71
2023/07/19 04:37:25;;;;;;;12.57;5.85;;;;;;;16.91;76.84;101186.75;4965246;28;20567;-70
2023/07/19 04:39:52;;;;;;;13.02;6.85;;;;;;;16.95;76.41;101182.16;4978891;28;20097;-70
2023/07/19 04:42:22;;;;;;;16.95;5.82;;;;;;;17.00;76.28;101179.25;4964069;28;20062;-70
2023/07/19 04:44:51;;;;;;;30.50;8.02;;;;;;;17.01;76.57;101195.19;4982475;28;20061;-71
2023/07/19 04:47:20;;;;;;;18.73;6.35;;;;;;;17.03;76.53;101181.75;4963475;28;20632;-71
2023/07/19 04:49:47;;;;;;;15.07;6.65;;;;;;;17.05;76.76;101186.06;4977218;28;20065;-71
2023/07/19 04:52:15;;;;;;;14.85;6.60;;;;;;;17.08;76.64;101177.94;4980667;28;20063;-71
2023/07/19 04:54:43;;;;;;;11.65;6.50;;;;;;;17.12;76.15;101175.97;4980658;28;20105;-70
2023/07/19 04:57:10;;;;;;;12.48;6.40;;;;;;;17.18;76.22;101190.75;4978897;28;20101;-71
2023/07/19 04:59:37;;;;;;;14.40;6.50;;;;;;;17.22;75.77;101187.84;4965066;28;20043;-70
2023/07/19 05:02:05;;;;;;;11.77;6.78;;;;;;;17.27;75.48;101195.59;4997076;28;20068;-71
2023/07/19 05:04:33;;;;;;;14.13;6.53;;;;;;;17.29;75.08;101196.38;4996785;28;20554;-71
2023/07/19 05:07:00;;;;;;;11.88;7.10;;;;;;;17.32;74.79;101196.22;4963597;28;20047;-71
2023/07/19 05:09:31;;;;;;;11.43;6.85;;;;;;;17.30;74.88;101199.91;4997105;28;20448;-71
2023/07/19 05:11:58;;;;;;;15.40;7.00;;;;;;;17.31;75.05;101199.84;4979150;28;20101;-71
2023/07/19 05:14:26;;;;;;;16.85;6.63;;;;;;;17.34;75.15;101201.47;4978303;28;20050;-71
2023/07/19 05:16:53;;;;;;;11.27;6.97;;;;;;;17.44;74.66;101207.19;4963050;28;20438;-71
2023/07/19 05:19:20;;;;;;;18.00;8.45;;;;;;;17.50;74.38;101204.19;4964342;28;20050;-71
2023/07/19 05:21:47;;;;;;;14.70;7.30;;;;;;;17.59;74.15;101203.69;4962938;28;20126;-71
2023/07/19 05:24:14;;;;;;;14.73;6.57;;;;;;;17.75;73.95;101200.19;4965516;28;20061;-72
2023/07/19 05:26:41;;;;;;;17.00;7.88;;;;;;;18.24;72.79;101204.59;4966251;28;20054;-71
2023/07/19 05:29:09;;;;;;;14.82;7.57;;;;;;;18.43;72.09;101201.75;4964279;28;20066;-72
2023/07/19 05:31:36;;;;;;;26.63;8.48;;;;;;;18.42;70.94;101198.19;4964449;28;20039;-71
2023/07/19 05:34:04;;;;;;;15.88;7.55;;;;;;;18.40;70.83;101200.13;4967325;28;20047;-71
2023/07/19 05:36:31;;;;;;;18.27;7.90;;;;;;;18.39;70.65;101194.84;4966091;28;20549;-71
2023/07/19 05:38:58;;;;;;;13.25;7.35;;;;;;;18.57;70.55;101198.28;4966701;28;20526;-72
2023/07/19 05:41:25;;;;;;;14.85;7.18;;;;;;;19.34;68.55;101195.50;4967713;28;20339;-71
2023/07/19 05:43:53;;;;;;;12.88;5.80;;;;;;;20.62;65.39;101191.81;4963751;28;20054;-71
2023/07/19 05:46:36;;;;;;;22.40;7.43;;;;;;;20.25;65.26;101197.78;4966295;28;20130;-71
2023/07/19 05:49:04;;;;;;;22.65;7.53;;;;;;;19.96;65.59;101191.66;4968146;28;20054;-71
2023/07/19 05:51:31;;;;;;;13.77;6.63;;;;;;;19.75;65.98;101191.19;4967956;28;20062;-71
2023/07/19 05:53:58;;;;;;;27.70;7.50;;;;;;;20.78;64.04;101199.69;4968684;28;20826;-72
2023/07/19 05:56:25;;;;;;;17.23;6.25;;;;;;;21.51;61.85;101198.22;4970282;28;20055;-71
2023/07/19 05:58:54;;;;;;;19.95;6.47;;;;;;;21.32;61.36;101195.97;4966055;28;20042;-71
2023/07/19 06:01:21;;;;;;;14.98;6.72;;;;;;;21.02;61.85;101199.81;4967942;28;20047;-71
2023/07/19 06:03:53;;;;;;;18.40;6.93;;;;;;;20.72;62.43;101200.94;4966551;28;20101;-71
2023/07/19 06:06:20;;;;;;;10.82;6.13;;;;;;;20.52;63.08;101198.72;4970085;28;20109;-71
2023/07/19 06:08:48;;;;;;;21.25;6.65;;;;;;;20.43;63.16;101197.56;4969898;28;20053;-71
2023/07/19 06:11:15;;;;;;;14.65;6.57;;;;;;;20.75;62.26;101192.72;4969337;28;20043;-71
2023/07/19 06:13:42;;;;;;;17.70;7.05;;;;;;;20.53;62.43;101200.44;4970631;28;20511;-71
2023/07/19 06:16:09;;;;;;;11.48;6.45;;;;;;;20.32;62.89;101196.44;4963988;28;20110;-71
2023/07/19 06:18:36;;;;;;;14.60;7.40;;;;;;;20.22;63.23;101197.13;4967363;28;20043;-71
2023/07/19 06:21:04;;;;;;;11.25;6.88;;;;;;;20.20;63.42;101193.69;4968194;28;20101;-71
2023/07/19 06:23:31;;;;;;;15.43;6.90;;;;;;;20.07;63.72;101191.84;4967884;28;20070;-71
2023/07/19 06:25:58;;;;;;;13.10;7.25;;;;;;;20.02;64.31;101188.59;4968784;28;20100;-71
2023/07/19 06:28:25;;;;;;;15.80;7.28;;;;;;;20.07;64.50;101191.84;4967247;28;20043;-71
2023/07/19 06:30:53;;;;;;;17.98;7.30;;;;;;;20.12;64.19;101189.72;4963558;28;20507;-71
2023/07/19 06:33:20;;;;;;;14.38;7.13;;;;;;;20.20;64.14;101197.25;4968173;28;20043;-71
2023/07/19 06:35:47;;;;;;;15.00;6.30;;;;;;;20.24;63.55;101195.22;4967206;28;20282;-73
2023/07/19 06:38:14;;;;;;;9.57;6.72;;;;;;;20.25;63.01;101194.25;4967548;28;20047;-71
2023/07/19 06:40:41;;;;;;;13.77;6.88;;;;;;;20.19;63.02;101192.84;4965610;28;20610;-71
2023/07/19 06:43:09;;;;;;;15.13;6.63;;;;;;;20.10;63.69;101196.97;4973195;28;20074;-71
2023/07/19 06:45:36;;;;;;;11.30;6.47;;;;;;;20.22;63.82;101194.44;4967606;28;20552;-71
2023/07/19 06:48:03;;;;;;;13.82;6.55;;;;;;;20.39;63.17;101196.91;4967984;28;20070;-71
2023/07/19 06:50:31;;;;;;;14.13;7.40;;;;;;;20.63;62.96;101198.88;4968832;28;20515;-71
2023/07/19 06:52:59;;;;;;;23.05;7.18;;;;;;;20.78;62.90;101199.69;4968130;28;20109;-71
2023/07/19 06:55:27;;;;;;;10.43;5.88;;;;;;;20.84;62.24;101207.34;4961273;28;20050;-71
2023/07/19 06:57:54;;;;;;;11.15;5.47;;;;;;;20.79;61.21;101204.97;4969382;28;20053;-71
2023/07/19 07:00:22;;;;;;;9.68;5.25;;;;;;;20.71;61.25;101199.22;4965842;28;20050;-71
2023/07/19 07:02:50;;;;;;;9.68;5.00;;;;;;;20.69;61.44;101194.94;4963936;28;20050;-70
2023/07/19 07:05:17;;;;;;;11.80;5.60;;;;;;;20.71;61.49;101199.22;4957979;28;20233;-70
2023/07/19 07:07:44;;;;;;;14.60;5.82;;;;;;;20.73;61.18;101199.97;4962278;28;20765;-71
2023/07/19 07:10:12;;;;;;;12.75;4.80;;;;;;;20.79;60.86;101206.78;4965751;28;20129;-72
2023/07/19 07:12:42;;;;;;;7.45;4.70;;;;;;;20.85;60.91;101203.69;4966570;28;20038;-71
2023/07/19 07:15:09;;;;;;;9.43;4.43;;;;;;;20.94;59.43;101202.19;4966596;28;20054;-70
2023/07/19 07:17:38;;;;;;;11.65;4.32;;;;;;;21.18;59.67;101207.66;4966694;28;20045;-71
2023/07/19 07:20:07;;;;;;;12.60;4.60;;;;;;;21.39;59.46;101204.44;4967515;28;20104;-72
2023/07/19 07:22:34;;;;;;;11.40;4.28;;;;;;;21.34;57.95;101199.41;4967696;28;20070;-72
2023/07/19 07:25:01;;;;;;;13.75;5.15;;;;;;;21.31;58.44;101191.59;4966369;28;20051;-72
2023/07/19 07:27:28;;;;;;;19.73;4.88;;;;;;;21.48;59.03;101192.22;4967095;28;20126;-72
2023/07/19 07:29:55;;;;;;;18.90;4.95;;;;;;;21.68;58.59;101198.88;4966284;28;20054;-72
2023/07/19 07:32:22;;;;;;;9.23;3.70;;;;;;;21.71;57.44;101194.16;4965595;28;20046;-72
2023/07/19 07:34:49;;;;;;;10.45;3.65;;;;;;;21.83;57.39;101191.53;4964998;28;20047;-73
2023/07/19 07:37:17;;;;;;;11.68;3.40;;;;;;;21.99;56.45;101181.41;4966319;28;20063;-73
2023/07/19 07:39:45;;;;;;;6.57;2.90;;;;;;;22.15;55.76;101188.31;4966454;28;20397;-72
2023/07/19 07:42:12;;;;;;;7.03;3.10;;;;;;;22.21;55.37;101187.88;4966832;28;20125;-73
2023/07/19 07:44:39;;;;;;;11.32;2.85;;;;;;;22.32;54.05;101187.94;4965240;28;20117;-72
2023/07/19 07:47:07;;;;;;;10.52;2.90;;;;;;;22.37;53.97;101184.03;4966209;28;20114;-72
2023/07/19 07:49:34;;;;;;;15.52;3.30;;;;;;;22.59;53.84;101186.84;4966645;28;20101;-72
2023/07/19 07:52:03;;;;;;;32.80;3.92;;;;;;;22.71;51.91;101179.69;4966940;28;20073;-73
2023/07/19 07:54:30;;;;;;;10.85;2.75;;;;;;;22.92;52.11;101174.50;4965536;28;20297;-72
2023/07/19 07:56:58;;;;;;;6.38;2.80;;;;;;;23.00;51.79;101176.56;4961846;28;20121;-72
2023/07/19 07:59:25;;;;;;;7.88;2.63;;;;;;;23.03;52.15;101170.13;4965759;28;20061;-72
2023/07/19 08:01:52;;;;;;;6.53;2.58;;;;;;;23.05;51.46;101174.41;4965669;28;20219;-72
2023/07/19 08:04:19;;;;;;;7.38;2.78;;;;;;;23.06;51.44;101168.03;4966470;28;20039;-72
2023/07/19 08:06:46;;;;;;;8.85;2.63;;;;;;;23.13;51.21;101167.53;4964816;28;20886;-72
2023/07/19 08:09:13;;;;;;;8.77;3.40;;;;;;;23.19;50.67;101159.06;4968189;28;20069;-72
2023/07/19 08:11:40;;;;;;;6.78;2.88;;;;;;;23.19;50.83;101157.19;4964871;28;20043;-72
2023/07/19 08:14:07;;;;;;;9.00;3.00;;;;;;;23.12;50.97;101161.34;4964426;28;20042;-72
2023/07/19 08:16:34;;;;;;;7.85;2.80;;;;;;;23.01;50.91;101162.16;4963468;28;20042;-72
2023/07/19 08:19:02;;;;;;;7.82;3.20;;;;;;;22.91;51.26;101161.16;4959032;28;20066;-72
2023/07/19 08:21:29;;;;;;;11.15;3.15;;;;;;;22.96;51.23;101161.66;4962749;28;20066;-72
2023/07/19 08:24:04;;;;;;;12.13;3.20;;;;;;;23.10;50.72;101160.59;4963947;28;20043;-72
2023/07/19 08:26:31;;;;;;;7.43;3.13;;;;;;;23.11;51.00;101149.69;4963934;28;20039;-71
2023/07/19 08:28:58;;;;;;;7.25;2.80;;;;;;;23.25;50.74;101154.00;4960344;28;20053;-71
2023/07/19 08:31:25;;;;;;;7.53;2.80;;;;;;;23.28;49.96;101158.31;4960395;28;20054;-71
2023/07/19 08:33:53;;;;;;;8.85;2.85;;;;;;;23.30;49.30;101156.34;4958305;28;20460;-71
2023/07/19 08:36:20;;;;;;;9.43;2.80;;;;;;;23.16;49.25;101153.88;4959363;28;20038;-71
2023/07/19 08:38:48;;;;;;;11.00;2.92;;;;;;;23.04;49.74;101167.31;4959630;28;20227;-71
2023/07/19 08:41:24;;;;;;;7.93;3.40;;;;;;;22.99;50.60;101157.88;4965243;28;20126;-71
2023/07/19 08:43:55;;;;;;;13.00;3.58;;;;;;;23.07;50.38;101155.44;4958955;28;20137;-71
2023/07/19 08:46:23;;;;;;;16.98;3.67;;;;;;;23.09;50.98;101159.75;4960639;28;20050;-71
2023/07/19 08:48:50;;;;;;;16.65;3.25;;;;;;;23.18;49.21;101158.16;4964047;28;20483;-71
2023/07/19 08:51:18;;;;;;;13.68;3.47;;;;;;;23.33;49.57;101156.09;4966468;28;20051;-71
2023/07/19 08:53:46;;;;;;;12.20;2.75;;;;;;;23.49;49.10;101153.03;4962466;28;20097;-70
2023/07/19 08:56:17;;;;;;;8.38;2.85;;;;;;;23.70;49.46;101146.91;4958511;28;20039;-71
2023/07/19 08:58:45;;;;;;;31.98;4.10;;;;;;;24.00;48.42;101153.47;4958683;28;20209;-71
2023/07/19 09:01:13;;;;;;;45.58;4.30;;;;;;;24.35;47.16;101152.38;4963588;28;20047;-71
2023/07/19 09:03:41;;;;;;;18.27;3.42;;;;;;;24.63;46.42;101147.34;4960016;28;20047;-71
2023/07/19 09:06:08;;;;;;;11.18;2.70;;;;;;;24.74;46.74;101152.69;4960925;28;20049;-72
2023/07/19 09:08:40;;;;;;;7.35;2.45;;;;;;;24.78;45.03;101142.50;4965130;28;20101;-71
2023/07/19 09:11:07;;;;;;;7.15;2.58;;;;;;;24.69;45.23;101146.00;4965496;28;20334;-71
2023/07/19 09:13:37;;;;;;;7.40;2.40;;;;;;;24.73;44.10;101152.81;4964302;28;20070;-71
2023/07/19 09:16:06;;;;;;;6.55;2.58;;;;;;;24.76;43.99;101142.66;4961280;28;20075;-71
2023/07/19 09:18:36;;;;;;;8.75;2.00;;;;;;;24.87;44.65;101149.81;4959568;28;20070;-71
2023/07/19 09:21:05;;;;;;;7.35;1.90;;;;;;;24.99;44.22;101144.34;4959605;28;20063;-70
2023/07/19 09:23:37;;;;;;;10.13;2.72;;;;;;;25.19;44.16;101147.97;4961035;28;20047;-71
2023/07/19 09:26:06;;;;;;;5.13;1.83;;;;;;;25.33;41.58;101152.16;4960587;28;20102;-71
2023/07/19 09:28:34;;;;;;;4.60;1.52;;;;;;;25.26;41.07;101147.31;4957405;28;20042;-71
2023/07/19 09:31:05;;;;;;;9.30;2.22;;;;;;;25.21;41.44;101148.69;4959538;28;20066;-71
2023/07/19 09:33:36;;;;;;;4.20;1.75;;;;;;;25.40;40.81;101147.97;4965287;28;20050;-71
2023/07/19 09:36:03;;;;;;;5.78;1.67;;;;;;;25.40;40.93;101156.06;4962206;28;20094;-72
2023/07/19 09:38:31;;;;;;;9.70;1.75;;;;;;;25.23;39.05;101162.91;4966003;28;20085;-72
2023/07/19 09:40:58;;;;;;;6.25;1.70;;;;;;;25.12;39.33;101153.06;4965911;28;20043;-72
2023/07/19 09:43:25;;;;;;;2.30;1.27;;;;;;;25.03;38.97;101161.97;4966201;28;20050;-72
2023/07/19 09:45:53;;;;;;;7.28;1.77;;;;;;;24.87;40.38;101162.44;4966651;28;20049;-71
2023/07/19 09:48:23;;;;;;;7.40;1.60;;;;;;;24.70;40.74;101162.03;4967328;28;20146;-71
2023/07/19 09:50:56;;;;;;;5.57;1.77;;;;;;;24.64;40.98;101157.16;4965359;28;20384;-71
2023/07/19 09:53:24;;;;;;;3.30;1.40;;;;;;;24.79;41.43;101155.84;4969929;28;20129;-71
2023/07/19 09:55:54;;;;;;;5.32;1.60;;;;;;;24.88;41.33;101156.91;4962984;28;20137;-71
2023/07/19 09:58:23;;;;;;;4.05;1.63;;;;;;;24.88;41.26;101153.34;4961342;28;20047;-71
2023/07/19 10:00:50;;;;;;;3.38;1.60;;;;;;;24.91;40.93;101159.34;4964297;28;20039;-71
2023/07/19 10:03:19;;;;;;;4.53;1.67;;;;;;;24.91;41.21;101158.47;4961254;28;20050;-71
2023/07/19 10:05:59;;;;;;;11.65;2.55;;;;;;;24.86;41.26;101152.63;4960356;28;20042;-72
2023/07/19 10:08:26;;;;;;;5.80;2.13;;;;;;;24.81;42.40;101153.03;4960924;28;20129;-72
2023/07/19 10:11:00;;;;;;;4.50;2.20;;;;;;;24.81;43.10;101145.78;4963429;28;20035;-72
2023/07/19 10:13:50;;;;;;;6.85;2.85;;;;;;;24.65;44.32;101150.78;4963926;28;20504;-70
2023/07/19 10:16:34;;;;;;;21.20;3.80;;;;;;;24.68;44.89;101153.22;4963474;28;20046;-70
2023/07/19 10:19:10;;;;;;;10.20;3.00;;;;;;;24.79;45.06;101142.38;4963356;28;20045;-70
2023/07/19 10:21:43;;;;;;;8.55;3.20;;;;;;;24.90;45.23;101141.47;4969007;28;20500;-70
2023/07/19 10:24:13;;;;;;;9.52;2.70;;;;;;;25.06;45.32;101159.84;4967455;28;20133;-72
2023/07/19 10:26:41;;;;;;;8.18;3.45;;;;;;;25.03;46.09;101146.63;4966051;28;20046;-71
2023/07/19 10:29:08;;;;;;;10.77;3.60;;;;;;;24.97;46.51;101152.56;4968470;28;20046;-71
2023/07/19 10:31:35;;;;;;;10.20;3.08;;;;;;;24.99;46.26;101152.41;4968909;28;20043;-71
2023/07/19 10:34:03;;;;;;;7.00;3.20;;;;;;;24.90;46.17;101151.38;4971376;28;20043;-71
2023/07/19 10:36:30;;;;;;;11.70;3.10;;;;;;;24.73;47.05;101148.28;4968125;28;20061;-71
2023/07/19 10:38:57;;;;;;;16.25;3.22;;;;;;;24.68;47.42;101147.81;4968698;28;20097;-71
2023/07/19 10:41:24;;;;;;;6.60;2.40;;;;;;;24.74;47.72;101144.63;4968787;28;20043;-71
2023/07/19 10:43:52;;;;;;;9.25;2.95;;;;;;;24.90;47.96;101146.84;4969246;28;20039;-71
2023/07/19 10:46:21;;;;;;;11.10;2.80;;;;;;;24.95;48.00;101149.16;4965882;28;20396;-72
2023/07/19 10:48:50;;;;;;;7.30;2.88;;;;;;;24.84;48.23;101150.06;4970256;28;20487;-70
2023/07/19 10:51:18;;;;;;;8.85;2.20;;;;;;;24.79;48.11;101161.22;4966152;28;20062;-72
2023/07/19 10:53:56;;;;;;;8.30;2.10;;;;;;;24.65;48.36;101154.31;4966398;28;20047;-72
2023/07/19 10:56:25;;;;;;;6.63;2.20;;;;;;;24.46;48.56;101148.78;4965468;28;20047;-72
2023/07/19 10:59:00;;;;;;;7.22;2.15;;;;;;;24.43;48.60;101149.91;4965339;28;20077;-73
2023/07/19 11:01:29;;;;;;;7.63;1.65;;;;;;;24.49;48.72;101149.38;4963576;28;20122;-72
2023/07/19 11:04:05;;;;;;;7.95;1.55;;;;;;;24.47;47.84;101150.50;4967279;28;20090;-72
2023/07/19 11:06:36;;;;;;;4.07;1.52;;;;;;;24.38;48.47;101148.56;4968219;28;20046;-72
2023/07/19 11:09:11;;;;;;;6.38;1.48;;;;;;;24.28;48.25;101148.47;4972051;28;20042;-72
2023/07/19 11:11:39;;;;;;;5.03;1.63;;;;;;;24.34;48.72;101143.44;4967130;28;20071;-72
2023/07/19 11:14:07;;;;;;;17.85;2.28;;;;;;;24.46;48.27;101149.66;4967254;28;20097;-72
2023/07/19 11:16:34;;;;;;;16.02;2.45;;;;;;;24.53;48.28;101141.03;4969222;28;20045;-72
2023/07/19 11:19:02;;;;;;;8.15;1.80;;;;;;;24.80;47.12;101143.25;4966766;28;20373;-72
2023/07/19 11:21:30;;;;;;;11.73;2.15;;;;;;;24.72;47.47;101140.34;4968155;28;20494;-73
2023/07/19 11:23:57;;;;;;;7.20;1.52;;;;;;;24.75;46.77;101135.56;4967038;28;20042;-72
2023/07/19 11:26:24;;;;;;;10.02;1.90;;;;;;;25.07;47.30;101139.13;4964708;28;20108;-73